NWS Home NWS Lubbock West Texas Mesonet                      Daily Summary For 11/23/2017

Latest   N   C   S   Daily Sum   3hrΔ   24hrΔ   Soil Data 
Site Map   24hr Precip   72hr Precip   Google Plot

Previous  Date  


Station Time of Last Max Temp Min Temp Max/Min Dew Pt. Max/Min RH 10m Avg Wind 2m Avg Wind Peak Gust @ 33ft (mph) Potential Evapotranspiration
mm/day or in/day
Rain Sum Solar Rad
MJ/m^2
% Clear Day Red Flag
Abernathy 5ENE 03:00 AM 40 38 28 /28 67 / 62 8.4  (W) 5.2 14.8 mph 267° @ 0250 AM 1 or 0.04 0.00 0 0 0
Adrian 6WSW 03:00 AM 49 45 29 /27 49 / 46 10.5  (W) 5.6 14 mph 262° @ 0142 AM 1.8 or 0.07 0.00 0 0 0
Aiken 3WSW 03:00 AM 40 31 27 /25 77 / 59 7.7  (W) 4.2 9.9 mph 254° @ 1215 AM 1 or 0.04 0.00 0 0 0
Amarillo 15NNW 03:00 AM 46 43 30 /29 58 / 52 8.8  (W) 5.5 12.9 mph 268° @ 0118 AM 1.5 or 0.06 0.00 0 0 0
Amarillo 7SSE 03:00 AM 38 33 29 /27 76 / 69 6.9  (W) 3 9.5 mph 256° @ 0102 AM 0.8 or 0.03 0.00 0 0 0
Amarillo 9NNE 03:00 AM 38 33 28 /26 77 / 66 3  (S) 2.9 5.6 mph 175° @ 0139 AM 0.5 or 0.02 0.00 0 0 0
Amherst 1NE 03:00 AM 44 38 29 /27 68 / 55 9.5  (W) 5.4 15.5 mph 302° @ 0225 AM 1.3 or 0.05 0.00 0 0 0
Andrews 2E 03:00 AM 43 38 27 /24 63 / 48 3.8  (W) 0.5 6.1 mph 249° @ 1205 AM 1 or 0.04 0.00 0 0 0
Anton 6SSW 03:00 AM 37 36 27 /26 68 / 66 6.9  (W) 3.9 10.1 mph 257° @ 0145 AM 1 or 0.04 0.00 0 0 0
Aspermont 3NE 03:00 AM 40 36 24 /21 60 / 48 5.9  (S) 2.2 9 mph 188° @ 0110 AM 1 or 0.04 0.00 0 0 0
Big Bend NP - Persimmon Gap 03:00 AM 52 40 25 /19 43 / 34 1.3  (NE) 0.7 5.8 mph 49° @ 1201 AM 0.8 or 0.03 0.00 0 0 0
Big Lake 1WNW 03:00 AM 41 39 25 /23 54 / 51 4.7  (S) 1.1 6.7 mph 161° @ 1201 AM 1 or 0.04 0.00 0 0 0
Bootleg 11WNW 02:15 AM 40 36 26 /25 66 / 56 9.5  (W) 4.2 11.5 mph 264° @ 0112 AM 1.3 or 0.05 0.00 0 0 0
Boys Ranch 1WSW 03:00 AM 43 40 29 /28 63 / 56 5.7  (W) 4.7 14.2 mph 271° @ 1219 AM 1 or 0.04 0.00 0 0 0
Brownfield 2S 03:00 AM 42 36 26 /24 63 / 53 6.7  (W) 3.7 11 mph 268° @ 1210 AM 1 or 0.04 0.00 0 0 0
Canadian 6E 03:00 AM 41 36 28 /24 70 / 54 6  (N) 3.1 10.9 mph 296° @ 0219 AM 1 or 0.04 0.00 0 0 0
Caprock Canyons State Park 03:00 AM 53 48 29 /28 47 / 39 12.1  (NW) 8.7 21.9 mph 280° @ 1259 AM 2.3 or 0.09 0.00 0 0 0
Childress 2NNE 03:00 AM 42 40 25 /23 52 / 48 9.5  (S) 4.8 12.6 mph 201° @ 0150 AM 1.5 or 0.06 0.00 0 0 0
Clarendon 2WSW 03:00 AM 45 35 30 /26 71 / 52 5.2  (SW) 2 14.2 mph 314° @ 0245 AM 1 or 0.04 0.00 0 0 0
Claude 12SW 03:00 AM 46 42 28 /28 57 / 49 10.6  (W) 5.5 17 mph 313° @ 0149 AM 1.5 or 0.06 0.00 0 0 0
Clyde 2WNW 03:00 AM 43 41 22 /20 45 / 40 7.7  (S) 3.9 10.7 mph 196° @ 0214 AM 1.5 or 0.06 0.00 0 0 0
Colorado City 5NW 03:00 AM 39 36 26 /24 68 / 57 5.5  (S) 2.3 10.1 mph 174° @ 1222 AM 1 or 0.04 0.00 0 0 0
Coyanosa 2N 03:00 AM 40 33 25 /22 65 / 55 2  (E) 0.2 6.8 mph 74° @ 1205 AM 0.8 or 0.03 0.00 0 0 0
Crowell 1E 03:00 AM 40 36 20 /18 50 / 42 7.5  (SW) 4.2 11 mph 222° @ 0102 AM 1.3 or 0.05 0.00 0 0 0
Dell City 03:00 AM 41 35 27 /24 71 / 53 4.6  (W) 2.2 8.6 mph 306° @ 1252 AM 0.8 or 0.03 0.00 0 0 0
Denver City 7WNW 03:00 AM 37 33 25 /24 71 / 60 8.1  (W) 4 11 mph 284° @ 1220 AM 1 or 0.04 0.00 0 0 0
Dimmitt 2NE 03:00 AM 41 40 29 /28 65 / 61 9.6  (W) 5.4 12.1 mph 289° @ 0225 AM 1.3 or 0.05 0.00 0 0 0
Dora NM 2SW 03:00 AM 47 42 27 /26 54 / 46 9.9  (W) 6.7 15.6 mph 266° @ 1215 AM 1.8 or 0.07 0.00 0 0 0
Dozier 3W 03:00 AM 38 33 23 /21 65 / 53 1.6  (N) 0.4 4.4 mph 303° @ 0115 AM 0.5 or 0.02 0.00 0 0 0
Endee NM 2SW 03:00 AM 41 34 28 /26 71 / 58 4.7  (SW) 2.5 7.5 mph 241° @ 0107 AM 0.8 or 0.03 0.00 0 0 0
Floydada 2NNE 03:00 AM 40 34 27 /25 73 / 55 8.8  (SW) 4.9 13.3 mph 236° @ 1245 AM 1 or 0.04 0.00 0 0 0
Fluvanna 3WNW 03:00 AM 42 39 24 /24 55 / 49 8  (SW) 3.2 12 mph 223° @ 0115 AM 1.3 or 0.05 0.00 0 0 0
Fort Chadbourne 03:00 AM 35 32 32 /27 90 / 81 3.3  (NW) 0.1 6.7 mph 308° @ 0238 AM 0.5 or 0.02 0.00 0 0 0
Fort Lancaster 03:00 AM 37 32 24 /22 67 / 57 0.8  (N) 0.8 3.8 mph 41° @ 1233 AM 0.5 or 0.02 0.00 0 0 0
Fort Lewis CO 03:00 AM 42 32 26 /20 72 / 46 7.6  (NE) 4.7 15.5 mph 43° @ 0143 AM 1 or 0.04 0.00 0 0 0
Fort McKavett 03:00 AM 32 27 22 /19 74 / 64 3.4  (SW) 0.5 6.4 mph 214° @ 0143 AM 0.5 or 0.02 0.00 0 0 0
Friona 2NE 03:00 AM 37 37 29 /28 72 / 71 6.4  (W) 3 11.3 mph 262° @ 1210 AM 0.8 or 0.03 0.00 0 0 0
Gail 2ESE 03:00 AM 45 38 26 /24 62 / 45 7.8  (SW) 3.4 12.1 mph 249° @ 1235 AM 1.3 or 0.05 0.00 0 0 0
Goodlett 3W 03:00 AM 37 35 23 /20 58 / 51 7.6  (SW) 3.4 9.6 mph 200° @ 1215 AM 1.3 or 0.05 0.00 0 0 0
Goodnight 03:00 AM 45 43 30 /29 59 / 56 13.7  (W) 8.9 16.8 mph 287° @ 0110 AM 1.8 or 0.07 0.00 0 0 0
Graham 5SSW 03:00 AM 42 40 26 /25 58 / 52 11.6  (W) 7.8 15.6 mph 277° @ 0215 AM 1.5 or 0.06 0.00 0 0 0
Guadalupe Mtns Natl Park 03:00 AM 56 51 22 /20 32 / 24 5.5  (W) 3.8 11.5 mph 300° @ 0256 AM 2 or 0.08 0.00 0 0 0
Guthrie 10WSW 03:00 AM 45 40 24 /21 50 / 45 8.3  (S) 4.1 14.4 mph 226° @ 0220 AM 1.5 or 0.06 0.00 0 0 0
Happy 1E 03:00 AM 48 42 29 /29 58 / 48 13  (W) 9.4 18.9 mph 302° @ 0113 AM 1.8 or 0.07 0.00 0 0 0
Hart 3N 03:00 AM 37 35 29 /26 75 / 70 7.8  (W) 4.2 9.6 mph 293° @ 0220 AM 0.8 or 0.03 0.00 0 0 0
Haskell 1NW 03:00 AM 39 36 23 /20 56 / 47 5.9  (S) 2.5 8.8 mph 201° @ 0300 AM 1 or 0.04 0.00 0 0 0
Hereford 2NW 03:00 AM 38 36 28 /26 70 / 64 7.8  (W) 4.3 10.2 mph 264° @ 0245 AM 1 or 0.04 0.00 0 0 0
Hobbs NM 5NW 03:00 AM 38 36 26 /25 67 / 61 5.4  (W) 1.3 8.3 mph 304° @ 0227 AM 0.8 or 0.03 0.00 0 0 0
Jayton 1SSE 03:00 AM 40 36 26 /23 63 / 50 7.7  (W) 4.8 11.4 mph 268° @ 0255 AM 1.3 or 0.05 0.00 0 0 0
Junction 1SSW 03:00 AM 30 26 26 /21 86 / 72 1.8  (N) 0.3 5.1 mph 191° @ 0255 AM 0.5 or 0.02 0.00 0 0 0
Knox City 3NW 03:00 AM 39 34 24 /20 65 / 47 5.2  (SW) 1.2 9.4 mph 196° @ 0300 AM 1 or 0.04 0.00 0 0 0
Lake Alan Henry 1NW 03:00 AM 42 38 24 /24 57 / 48 7.2  (W) 3.2 11.4 mph 262° @ 0236 AM 1.3 or 0.05 0.00 0 0 0
Lamesa 2SE 03:00 AM 41 35 29 /27 78 / 61 5.9  (W) 2 9.5 mph 269° @ 1210 AM 0.8 or 0.03 0.00 0 0 0
Levelland 4S 03:00 AM 39 33 25 /24 69 / 58 6.9  (W) 3.2 12.6 mph 252° @ 1205 AM 1 or 0.04 0.00 0 0 0
Lomax 1SSE 03:00 AM 39 33 24 /23 65 / 54 2.5  (SW) 0 6 mph 224° @ 1212 AM 0.8 or 0.03 0.00 0 0 0
Lubbock 3WNW TTU 03:00 AM 46 41 26 /26 55 / 45 7.8  (W) 3.8 14.8 mph 263° @ 1205 AM 1.5 or 0.06 0.00 0 0 0
McCamey 1SSW 02:55 AM 49 45 28 /27 50 / 42 4.2  (NE) 2.4 6.4 mph 61° @ 0247 AM 1.3 or 0.05 0.00 0 0 0
McLean 1E 03:00 AM 43 40 28 /21 55 / 45 8.4  (SW) 4.9 11.5 mph 306° @ 0225 AM 1.5 or 0.06 0.00 0 0 0
Memphis 1NE 03:00 AM 33 32 24 /22 70 / 64 1.6  (NW) 0 4.9 mph 315° @ 1235 AM 0.5 or 0.02 0.00 0 0 0
Menard 2NW 03:00 AM 30 25 23 /18 83 / 69 2.2  (NW) 0.5 4.5 mph 259° @ 0101 AM 0.5 or 0.02 0.00 0 0 0
Mertzon 3NNE 03:00 AM 32 30 25 /24 79 / 75 4.3  (SW) 1.2 7.4 mph 205° @ 1202 AM 0.5 or 0.02 0.00 0 0 0
Morton 1ENE 03:00 AM 39 35 26 /25 70 / 58 7.5  (W) 4 10.8 mph 290° @ 0240 AM 1 or 0.04 0.00 0 0 0
Muleshoe 2SSW 03:00 AM 38 35 28 /27 74 / 67 8.5  (W) 4.9 12.6 mph 259° @ 1205 AM 1 or 0.04 0.00 0 0 0
New Home 03:00 AM 39 35 25 /23 64 / 57 6.2  (W) 2.7 8.1 mph 276° @ 1230 AM 1 or 0.04 0.00 0 0 0
Northfield 1S 02:20 AM 41 37 26 /24 62 / 53 7.1  (S) 2.2 10 mph 234° @ 0205 AM 1.3 or 0.05 0.00 0 0 0
O'Donnell 1N 03:00 AM 40 35 26 /25 69 / 54 6.2  (W) 2.3 10.9 mph 262° @ 1225 AM 1 or 0.04 0.00 0 0 0
Odell 4ENE 03:00 AM 43 40 19 /18 43 / 36 9.1  (S) 5.4 14.8 mph 193° @ 0205 AM 1.8 or 0.07 0.00 0 0 0
Olton 6S 03:00 AM 43 37 29 /27 68 / 58 10.6  (W) 7.5 16.7 mph 296° @ 0215 AM 1.3 or 0.05 0.00 0 0 0
Paducah 10SW 03:00 AM 47 39 28 /23 57 / 48 12  (S) 6.7 20.3 mph 243° @ 0225 AM 1.8 or 0.07 0.00 0 0 0
Palo Duro 4E (JA Ranch) 03:00 AM 43 32 28 /25 77 / 53 2.3  (N) 2.5 6.7 mph 354° @ 0130 AM 0.8 or 0.03 0.00 0 0 0
Palo Duro Canyon SP Floor 03:00 AM 43 41 29 /29 61 / 58 6.1  (NW) 2.4 11.3 mph 309° @ 0143 AM 1 or 0.04 0.00 0 0 0
Palo Duro Canyon State Park Rim 03:00 AM 45 41 28 /28 60 / 52 7.9  (W) 4.7 14.2 mph 300° @ 0228 AM 1.3 or 0.05 0.00 0 0 0
Pampa 2E 03:00 AM 46 43 31 /30 63 / 56 6  (SW) 2.1 9.3 mph 278° @ 0150 AM 1.3 or 0.05 0.00 0 0 0
Panhandle 1SSW 03:00 AM 43 39 30 /29 65 / 59 8.9  (W) 4.8 12.4 mph 295° @ 0246 AM 1.3 or 0.05 0.00 0 0 0
Plains 3N 03:00 AM 35 31 24 /23 73 / 65 7.4  (W) 3.5 11 mph 280° @ 1205 AM 0.8 or 0.03 0.00 0 0 0
Plainview 1S 03:00 AM 40 37 30 /27 69 / 65 5.6  (SW) 3.8 10.8 mph 279° @ 0240 AM 0.8 or 0.03 0.00 0 0 0
Post 1NE 03:00 AM 47 45 25 /23 43 / 40 12.6  (SW) 9.2 21.1 mph 240° @ 1230 AM 2.3 or 0.09 0.00 0 0 0
Ralls 1SE 03:00 AM 44 37 26 /23 57 / 49 8.8  (SW) 5.9 14 mph 271° @ 0145 AM 1.3 or 0.05 0.00 0 0 0
Reese Center 03:00 AM 40 36 26 /26 68 / 59 8.6  (SW) 4.3 11.7 mph 245° @ 1250 AM 1 or 0.04 0.00 0 0 0
Roaring Springs 3N 03:00 AM 49 43 30 /28 59 / 47 12  (SW) 8.5 20.2 mph 258° @ 1255 AM 1.8 or 0.07 0.00 0 0 0
San Angelo 7NW 03:00 AM 35 32 25 /25 75 / 67 4.4  (NW) 3.3 6.7 mph 310° @ 0200 AM 0.8 or 0.03 0.00 0 0 0
Seagraves 1SW 03:00 AM 37 32 28 /25 77 / 67 4.9  (W) 0 9 mph 265° @ 1225 AM 0.8 or 0.03 0.00 0 0 0
Seminole 2NNE 03:00 AM 40 35 27 /26 73 / 59 5.4  (W) 2.9 8.7 mph 268° @ 1240 AM 0.8 or 0.03 0.00 0 0 0
Seymour 3NW 03:00 AM 40 38 22 /18 53 / 42 6.3  (S) 3.1 13.3 mph 189° @ 0245 AM 1.3 or 0.05 0.00 0 0 0
Sierra Blanca 1SSE 03:00 AM 56 41 24 /20 45 / 28 2.5  (N) 2.3 7.2 mph 354° @ 1206 AM 1.3 or 0.05 0.00 0 0 0
Silverton 7ESE 03:00 AM 43 37 26 /26 65 / 52 9.3  (SW) 4.9 12.4 mph 245° @ 1215 AM 1.3 or 0.05 0.00 0 0 0
Slaton 2NE 03:00 AM 42 41 26 /24 55 / 50 10.2  (W) 6.8 13.9 mph 246° @ 1250 AM 1.5 or 0.06 0.00 0 0 0
Snyder 3E 03:00 AM 42 39 26 /25 59 / 51 7.7  (S) 2.4 11.7 mph 195° @ 1255 AM 1.3 or 0.05 0.00 0 0 0
Snyder 3SSW 03:00 AM 41 37 26 /24 63 / 51 6.2  (SW) 2.8 10 mph 212° @ 0113 AM 1 or 0.04 0.00 0 0 0
Spur 1W 03:00 AM 40 39 25 /24 57 / 53 4.5  (W) 0.2 7.3 mph 258° @ 0215 AM 1 or 0.04 0.00 0 0 0
St. Lawrence 5SW 03:00 AM 42 35 25 /23 62 / 48 4.2  (S) 1.3 7.9 mph 123° @ 0255 AM 1 or 0.04 0.00 0 0 0
Stamford 5ESE 03:00 AM 38 35 26 /25 69 / 61 5.7  (S) 2.3 7.7 mph 188° @ 0241 AM 0.8 or 0.03 0.00 0 0 0
Sterling City 4WSW 03:00 AM 29 26 23 /22 85 / 78 0.7  (W) 0 3.4 mph 284° @ 0226 AM 0.5 or 0.02 0.00 0 0 0
Stinnett 1NNW 03:00 AM 49 45 30 /29 56 / 47 13.4  (W) 8 18.5 mph 294° @ 0111 AM 2 or 0.08 0.00 0 0 0
Sundown 8WSW 03:00 AM 36 34 25 /25 70 / 65 8.4  (W) 3.2 11.3 mph 263° @ 1210 AM 1 or 0.04 0.00 0 0 0
Sweetwater 11SW 03:00 AM 41 39 23 /22 53 / 48 6.4  (S) 3.6 10.5 mph 192° @ 0210 AM 1.3 or 0.05 0.00 0 0 0
Tahoka 3NNE 03:00 AM 42 39 25 /24 55 / 50 8.2  (W) 4.5 11.7 mph 262° @ 1238 AM 1.3 or 0.05 0.00 0 0 0
Tarzan 2WNW 03:00 AM 39 36 28 /27 73 / 64 4.1  (W) 0.5 6.7 mph 289° @ 0243 AM 0.8 or 0.03 0.00 0 0 0
Tatum NM 2SW 03:00 AM 34 31 26 /24 77 / 70 8.3  (W) 3.3 10.4 mph 298° @ 0300 AM 0.8 or 0.03 0.00 0 0 0
Throckmorton 1SW 03:00 AM 42 38 28 /20 60 / 41 5.6  (SW) 2.7 11 mph 226° @ 0255 AM 1.3 or 0.05 0.00 0 0 0
Tulia 2ENE 03:00 AM 44 40 31 /31 70 / 60 10.3  (W) 6.5 13.7 mph 273° @ 1205 AM 1.3 or 0.05 0.00 0 0 0
Turkey 2WSW 03:00 AM 47 41 30 /29 65 / 50 9.1  (W) 4.9 14.6 mph 244° @ 1225 AM 1.5 or 0.06 0.00 0 0 0
Umbarger 3NNE 03:00 AM 38 35 27 /25 71 / 64 7.8  (SW) 4 10.3 mph 231° @ 1216 AM 1 or 0.04 0.00 0 0 0
Vigo Park 03:00 AM 41 37 30 /28 69 / 63 7.9  (W) 3.3 12.1 mph 307° @ 0231 AM 1 or 0.04 0.00 0 0 0
Wall 2E 03:00 AM 37 33 28 /26 77 / 66 6.6  (W) 2.6 9.6 mph 250° @ 0233 AM 0.8 or 0.03 0.00 0 0 0
Weinert 2NNE 03:00 AM 42 39 22 /20 51 / 42 7.2  (S) 3 12.4 mph 208° @ 0223 AM 1.5 or 0.06 0.00 0 0 0
Welch 03:00 AM 38 34 27 /26 72 / 63 5.3  (SW) 0 7.4 mph 249° @ 0148 AM 0.8 or 0.03 0.00 0 0 0
White River Lake 6NW 03:00 AM 49 46 26 /24 43 / 40 8.7  (W) 6 15.9 mph 239° @ 0120 AM 2 or 0.08 0.00 0 0 0
Wolfforth 6SSW 03:00 AM 42 41 26 /25 53 / 50 8.3  (W) 5.2 12.1 mph 263° @ 0200 AM 1.5 or 0.06 0.00 0 0 0

WestTexas Mesonet Home    Site Map/Menu  National Weather Service Lubbock   Soil Data   Latest Observation Page   Previous  Date